createdAt,value
2018-04-19T00:00:31.979Z,75.52
2018-04-19T00:01:34.421Z,75.52
2018-04-19T00:02:31.958Z,75.52
2018-04-19T00:03:31.964Z,75.43
2018-04-19T00:04:31.964Z,75.34
2018-04-19T00:05:31.978Z,75.3
2018-04-19T00:06:31.961Z,75.81
2018-04-19T00:07:31.954Z,75.34
2018-04-19T00:08:31.967Z,75.81
2018-04-19T00:09:31.726Z,75.96
2018-04-19T00:10:31.972Z,76
2018-04-19T00:11:31.966Z,76.39
2018-04-19T00:12:31.958Z,76.29
2018-04-19T00:13:31.964Z,76.54
2018-04-19T00:14:31.955Z,76.45
2018-04-19T00:15:31.961Z,76.1
2018-04-19T00:16:32.004Z,76.29
2018-04-19T00:17:31.939Z,76.39
2018-04-19T00:18:31.959Z,76.57
2018-04-19T00:19:31.951Z,76.54
2018-04-19T00:20:31.946Z,76.06
2018-04-19T00:21:31.943Z,76.82
2018-04-19T00:22:31.940Z,76.82
2018-04-19T00:23:31.943Z,76.64
2018-04-19T00:24:31.936Z,77.11
2018-04-19T00:25:31.938Z,77.01
2018-04-19T00:26:31.945Z,76.92
2018-04-19T00:27:31.682Z,77.11
2018-04-19T00:28:31.945Z,77.5
2018-04-19T00:29:31.941Z,77.5
2018-04-19T00:30:31.974Z,77.5
2018-04-19T00:31:36.794Z,77.3
2018-04-19T00:32:31.922Z,77.78
2018-04-19T00:33:31.944Z,77.4
2018-04-19T00:34:32.021Z,77.69
2018-04-19T00:35:31.950Z,78.36
2018-04-19T00:36:31.939Z,77.87
2018-04-19T00:37:31.933Z,77.21
2018-04-19T00:38:31.939Z,77.4
2018-04-19T00:39:31.930Z,77.59
2018-04-19T00:40:31.932Z,77.69
2018-04-19T00:41:31.659Z,78.45
2018-04-19T00:42:31.906Z,78.83
2018-04-19T00:43:31.907Z,78.89
2018-04-19T00:44:31.918Z,78.6
2018-04-19T00:45:31.912Z,79.27
2018-04-19T00:46:31.684Z,79.56
2018-04-19T00:47:32.752Z,79.65
2018-04-19T00:48:31.919Z,79.85
2018-04-19T00:49:31.921Z,79.56
2018-04-19T00:50:31.898Z,80.22
2018-04-19T00:51:31.907Z,79.94
2018-04-19T00:52:31.652Z,79.65
2018-04-19T00:53:31.910Z,80.07
2018-04-19T00:54:31.907Z,79.94
2018-04-19T00:55:31.907Z,80.32
2018-04-19T00:56:31.901Z,80.32
2018-04-19T00:57:31.900Z,79.69
2018-04-19T00:58:31.903Z,79.98
2018-04-19T00:59:31.901Z,79.36
2018-04-19T01:00:31.899Z,79.85
2018-04-19T01:01:31.904Z,80.04
2018-04-19T01:02:33.477Z,79.94
2018-04-19T01:03:31.881Z,80.32
2018-04-19T01:04:31.869Z,80.61
2018-04-19T01:05:31.880Z,80.32
2018-04-19T01:06:31.662Z,80.41
2018-04-19T01:07:31.878Z,81.27
2018-04-19T01:08:31.866Z,81.27
2018-04-19T01:09:31.625Z,81.09
2018-04-19T01:10:31.865Z,81.37
2018-04-19T01:11:31.866Z,81.09
2018-04-19T01:12:31.607Z,81.09
2018-04-19T01:13:31.857Z,81.18
2018-04-19T01:14:31.614Z,81.09
2018-04-19T01:15:31.862Z,81.37
2018-04-19T01:16:31.620Z,80.9
2018-04-19T01:17:31.879Z,81.47
2018-04-19T01:18:31.853Z,81.47
2018-04-19T01:19:31.859Z,81.66
2018-04-19T01:20:31.862Z,82.52
2018-04-19T01:21:31.850Z,82.04
2018-04-19T01:22:31.852Z,82.32
2018-04-19T01:23:31.862Z,82.32
2018-04-19T01:24:31.850Z,82.42
2018-04-19T01:25:31.866Z,81.85
2018-04-19T01:26:31.852Z,82.42
2018-04-19T01:27:31.617Z,82.42
2018-04-19T01:28:31.827Z,82.42
2018-04-19T01:29:31.825Z,82.32
2018-04-19T01:30:31.828Z,82.71
2018-04-19T01:31:31.832Z,82.23
2018-04-19T01:32:31.584Z,82.61
2018-04-19T01:33:32.822Z,82.23
2018-04-19T01:34:31.827Z,82.32
2018-04-19T01:35:31.825Z,81.95
2018-04-19T01:36:31.815Z,82.23
2018-04-19T01:37:31.821Z,82.81
2018-04-19T01:38:31.575Z,83.18
2018-04-19T01:39:31.811Z,83.09
2018-04-19T01:40:31.558Z,83.14
2018-04-19T01:41:31.818Z,83.53
2018-04-19T01:42:31.804Z,82.95
2018-04-19T01:43:31.802Z,83.53
2018-04-19T01:44:31.804Z,83.53
2018-04-19T01:45:31.550Z,83.81
2018-04-19T01:46:31.548Z,83.62
2018-04-19T01:47:31.799Z,84.48
2018-04-19T01:48:33.651Z,84.39
2018-04-19T01:49:31.801Z,85.15
2018-04-19T01:50:31.797Z,85.05
2018-04-19T01:51:31.807Z,84.96
2018-04-19T01:52:31.791Z,84.86
2018-04-19T01:53:31.783Z,84.77
2018-04-19T01:54:31.534Z,84.96
2018-04-19T01:55:31.787Z,84.67
2018-04-19T01:56:31.781Z,84.96
2018-04-19T01:57:31.778Z,84.86
2018-04-19T01:58:31.773Z,85.05
2018-04-19T01:59:31.525Z,84.96
2018-04-19T02:00:31.783Z,85.63
2018-04-19T02:01:31.771Z,85.39
2018-04-19T02:02:31.769Z,85.68
2018-04-19T02:03:31.762Z,85.87
2018-04-19T02:04:31.759Z,85.77
2018-04-19T02:05:31.764Z,86.01
2018-04-19T02:06:31.510Z,85.49
2018-04-19T02:07:31.754Z,85.58
2018-04-19T02:08:31.751Z,85.97
2018-04-19T02:09:31.751Z,85.3
2018-04-19T02:10:31.500Z,85.58
2018-04-19T02:11:31.749Z,85.53
2018-04-19T02:12:31.749Z,85.72
2018-04-19T02:13:31.492Z,86.01
2018-04-19T02:14:31.750Z,85.34
2018-04-19T02:15:31.495Z,85.68
2018-04-19T02:16:31.735Z,85.72
2018-04-19T02:17:31.731Z,85.68
2018-04-19T02:18:31.732Z,86.25
2018-04-19T02:19:31.731Z,86.44
2018-04-19T02:20:31.730Z,86.16
2018-04-19T02:21:31.725Z,86.25
2018-04-19T02:22:31.721Z,86.44
2018-04-19T02:23:31.729Z,86.06
2018-04-19T02:24:31.466Z,86.35
2018-04-19T02:25:31.465Z,86.44
2018-04-19T02:26:31.713Z,86.63
2018-04-19T02:27:31.464Z,86.73
2018-04-19T02:28:31.710Z,87.3
2018-04-19T02:29:31.469Z,86.63
2018-04-19T02:30:31.466Z,86.73
2018-04-19T02:31:31.464Z,86.63
2018-04-19T02:32:31.715Z,87.3
2018-04-19T02:33:31.698Z,87.02
2018-04-19T02:34:31.703Z,87.4
2018-04-19T02:35:31.693Z,87.4
2018-04-19T02:36:31.698Z,87.49
2018-04-19T02:37:31.691Z,87.78
2018-04-19T02:38:31.687Z,87.68
2018-04-19T02:39:31.685Z,87.97
2018-04-19T02:40:31.432Z,88.07
2018-04-19T02:41:31.686Z,88.54
2018-04-19T02:42:31.680Z,88.64
2018-04-19T02:43:31.426Z,88.07
2018-04-19T02:44:31.678Z,88.35
2018-04-19T02:45:31.422Z,88.26
2018-04-19T02:46:31.669Z,88.16
2018-04-19T02:47:31.673Z,88.07
2018-04-19T02:48:31.676Z,88.35
2018-04-19T02:49:31.659Z,88.54
2018-04-19T02:50:31.776Z,88.73
2018-04-19T02:51:31.657Z,88.64
2018-04-19T02:52:31.415Z,88.64
2018-04-19T02:53:31.655Z,89.02
2018-04-19T02:54:31.652Z,89.02
2018-04-19T02:55:31.653Z,89.12
2018-04-19T02:56:31.412Z,89.78
2018-04-19T02:57:31.656Z,90.07
2018-04-19T02:58:31.390Z,90.17
2018-04-19T02:59:31.642Z,90.26
2018-04-19T03:00:31.399Z,89.69
2018-04-19T03:01:31.391Z,90.07
2018-04-19T03:02:31.636Z,90.26
2018-04-19T03:03:31.384Z,90.45
2018-04-19T03:04:33.532Z,90.64
2018-04-19T03:05:31.626Z,90.93
2018-04-19T03:06:31.625Z,90.26
2018-04-19T03:07:31.619Z,90.17
2018-04-19T03:08:31.618Z,89.88
2018-04-19T03:09:31.618Z,89.59
2018-04-19T03:10:31.363Z,90.73
2018-04-19T03:11:31.609Z,90.93
2018-04-19T03:12:31.695Z,90.59
2018-04-19T03:13:31.607Z,90.69
2018-04-19T03:14:31.606Z,90.5
2018-04-19T03:15:31.597Z,90.55
2018-04-19T03:16:31.600Z,90.64
2018-04-19T03:17:31.601Z,91.02
2018-04-19T03:18:31.350Z,90.55
2018-04-19T03:19:31.591Z,91.12
2018-04-19T03:20:31.624Z,90.69
2018-04-19T03:21:31.597Z,91.12
2018-04-19T03:22:31.585Z,91.12
2018-04-19T03:23:31.329Z,90.83
2018-04-19T03:24:31.577Z,90.64
2018-04-19T03:25:31.328Z,91.12
2018-04-19T03:26:31.320Z,90.73
2018-04-19T03:27:31.574Z,91.6
2018-04-19T03:28:31.316Z,90.93
2018-04-19T03:29:31.567Z,91.31
2018-04-19T03:37:34.872Z,91.74
2018-04-19T03:38:25.418Z,91.74
2018-04-19T03:39:25.154Z,91.74
2018-04-19T03:40:25.402Z,91.83
2018-04-19T03:41:25.151Z,92.22
2018-04-19T03:42:25.391Z,92.03
2018-04-19T03:43:25.390Z,92.12
2018-04-19T03:44:25.388Z,92.12
2018-04-19T03:45:25.136Z,92.03
2018-04-19T03:46:25.383Z,92.12
2018-04-19T03:47:25.378Z,92.98
2018-04-19T03:48:25.377Z,92.88
2018-04-19T03:49:25.375Z,92.69
2018-04-19T03:50:25.370Z,92.98
2018-04-19T03:51:25.120Z,92.88
2018-04-19T03:52:25.370Z,93.08
2018-04-19T03:53:25.615Z,92.98
2018-04-19T03:54:25.359Z,92.41
2018-04-19T03:55:25.393Z,92.36
2018-04-19T03:56:25.357Z,92.17
2018-04-19T03:57:25.355Z,92.22
2018-04-19T03:58:25.348Z,92.12
2018-04-19T03:59:25.098Z,91.93
2018-04-19T04:00:25.100Z,91.98
2018-04-19T04:01:25.350Z,91.78
2018-04-19T04:02:25.348Z,92.22
2018-04-19T04:03:25.090Z,92.32
2018-04-19T04:04:25.337Z,92.69
2018-04-19T04:05:25.359Z,92.98
2018-04-19T04:06:25.345Z,93.46
2018-04-19T04:07:25.346Z,93.36
2018-04-19T04:08:26.974Z,93.65
2018-04-19T04:09:25.320Z,93.65
2018-04-19T04:10:25.318Z,93.93
2018-04-19T04:11:25.081Z,93.55
2018-04-19T04:12:25.312Z,93.93
2018-04-19T04:13:25.308Z,93.65
2018-04-19T04:14:25.315Z,93.84
2018-04-19T04:15:25.063Z,93.65
2018-04-19T04:16:25.337Z,93.65
2018-04-19T04:17:25.297Z,94.03
2018-04-19T04:18:25.298Z,93.65
2018-04-19T04:19:25.044Z,93.74
2018-04-19T04:20:25.296Z,94.22
2018-04-19T04:21:25.039Z,94.6
2018-04-19T04:22:25.034Z,94.51
2018-04-19T04:23:25.035Z,94.51
2018-04-19T04:24:25.299Z,94.51
2018-04-19T04:25:25.375Z,94.7
2018-04-19T04:26:25.274Z,94.03
2018-04-19T04:27:25.273Z,93.65
2018-04-19T04:28:25.265Z,93.27
2018-04-19T04:29:25.308Z,93.74
2018-04-19T04:30:25.266Z,93.93
2018-04-19T04:31:25.391Z,93.46
2018-04-19T04:32:25.010Z,93.93
2018-04-19T04:33:25.255Z,93.65
2018-04-19T04:34:25.002Z,93.65
2018-04-19T04:35:25.261Z,93.93
2018-04-19T04:36:24.997Z,93.55
2018-04-19T04:37:25.245Z,93.55
2018-04-19T04:38:27.158Z,93.55
2018-04-19T04:39:25.242Z,94.12
2018-04-19T04:40:25.060Z,93.65
2018-04-19T04:41:25.239Z,93.84
2018-04-19T04:42:25.241Z,93.65
2018-04-19T04:43:25.226Z,93.74
2018-04-19T04:44:25.241Z,93.93
2018-04-19T04:45:25.228Z,93.55
2018-04-19T04:46:24.985Z,93.02
2018-04-19T04:47:25.223Z,92.93
2018-04-19T04:48:25.218Z,92.46
2018-04-19T04:49:25.212Z,92.07
2018-04-19T04:50:25.216Z,91.98
2018-04-19T04:51:24.956Z,92.26
2018-04-19T04:52:25.202Z,91.88
2018-04-19T04:53:25.203Z,91.88
2018-04-19T04:54:25.236Z,91.98
2018-04-19T04:55:25.195Z,92.26
2018-04-19T04:56:25.192Z,91.98
2018-04-19T04:57:25.189Z,92.55
2018-04-19T04:58:25.189Z,93.12
2018-04-19T04:59:25.189Z,91.93
2018-04-19T05:00:25.215Z,90.88
2018-04-19T05:01:25.185Z,89.11
2018-04-19T05:02:25.183Z,87.87
2018-04-19T05:03:25.191Z,87.58
2018-04-19T05:04:25.184Z,86.15
2018-04-19T05:05:25.225Z,84.47
2018-04-19T05:06:24.927Z,84.66
2018-04-19T05:07:25.180Z,83.8
2018-04-19T05:08:25.177Z,83.56
2018-04-19T05:09:25.178Z,82.6
2018-04-19T05:10:24.975Z,80.73
2018-04-19T05:11:25.179Z,79.87
2018-04-19T05:12:25.168Z,78.66
2018-04-19T05:13:25.170Z,77.04
2018-04-19T05:14:25.204Z,76.12
2018-04-19T05:15:25.170Z,74.49
2018-04-19T05:16:25.182Z,73.09
2018-04-19T05:17:24.920Z,72.13
2018-04-19T05:18:25.168Z,70.73
2018-04-19T05:19:25.218Z,70.06
2018-04-19T05:20:25.047Z,69.39
2018-04-19T05:21:24.927Z,68.95
2018-04-19T05:22:25.168Z,68.43
2018-04-19T05:23:25.177Z,68.33
2018-04-19T05:24:25.172Z,68.52
2018-04-19T05:25:25.179Z,68.91
2018-04-19T05:26:25.186Z,69.58
2018-04-19T05:27:25.176Z,69.64
2018-04-19T05:28:25.178Z,70.03
2018-04-19T05:29:25.199Z,70.7
2018-04-19T05:30:25.176Z,70.98
2018-04-19T05:31:24.927Z,71.62
2018-04-19T05:32:24.935Z,72.48
2018-04-19T05:33:25.179Z,72.77
2018-04-19T05:34:25.179Z,73.72
2018-04-19T05:35:24.948Z,74.49
2018-04-19T05:36:24.934Z,75.12
2018-04-19T05:37:24.929Z,75.7
2018-04-19T05:38:25.181Z,75.02
2018-04-19T05:39:30.396Z,74.2
2018-04-19T05:40:24.991Z,72.77
2018-04-19T05:41:25.183Z,71.27
2018-04-19T05:42:24.942Z,70.73
2018-04-19T05:43:25.200Z,68.75
2018-04-19T05:44:25.247Z,67.5
2018-04-19T05:45:25.252Z,66.86
2018-04-19T05:46:25.206Z,64.72
2018-04-19T05:47:25.197Z,61.97
2018-04-19T05:48:25.196Z,60.08
2018-04-19T05:49:25.198Z,58.86
2018-04-19T05:50:25.202Z,56.96
2018-04-19T05:51:25.205Z,55.62
2018-04-19T05:52:25.208Z,56.1
2018-04-19T05:53:25.206Z,56.29
2018-04-19T05:54:25.309Z,55.81
2018-04-19T05:55:25.214Z,55.43
2018-04-19T05:56:24.965Z,55.23
2018-04-19T05:57:24.970Z,55.23
2018-04-19T05:58:25.226Z,55.04
2018-04-19T05:59:24.980Z,55.04
2018-04-19T06:00:25.230Z,55.13
2018-04-19T06:01:25.233Z,55.62
2018-04-19T06:02:25.233Z,57.42
2018-04-19T06:03:25.238Z,58.73
2018-04-19T06:04:24.992Z,59.57
2018-04-19T06:05:25.027Z,60.98
2018-04-19T06:06:24.997Z,62.77
2018-04-19T06:07:25.256Z,63.83
2018-04-19T06:08:25.282Z,64.76
2018-04-19T06:09:25.265Z,65.88
2018-04-19T06:10:25.970Z,66.74
2018-04-19T06:11:25.035Z,67.85
2018-04-19T06:12:25.266Z,67.57
2018-04-19T06:13:25.273Z,68.05
2018-04-19T06:23:08.081Z,62.13
2018-04-19T06:24:08.325Z,61.01
2018-04-19T06:25:08.579Z,58.18
2018-04-19T06:26:08.079Z,55.62
2018-04-19T06:27:08.091Z,54.03
2018-04-19T06:28:12.078Z,52.71
2018-04-19T06:29:08.323Z,52.61
2018-04-19T06:30:08.577Z,52.23
2018-04-19T06:31:08.082Z,53.09
2018-04-19T06:32:08.093Z,53.55
2018-04-19T06:33:08.333Z,53.29
2018-04-19T06:34:08.336Z,52.13
2018-04-19T06:35:08.502Z,51.1
2018-04-19T06:36:08.460Z,49.87
2018-04-19T06:37:08.357Z,49.41
2018-04-19T06:38:08.352Z,48.93
2018-04-19T06:39:08.130Z,46.92
2018-04-19T06:40:08.389Z,46.27
2018-04-19T06:41:08.138Z,45.31
2018-04-19T06:42:08.133Z,44.26
2018-04-19T06:43:08.382Z,43.71
2018-04-19T06:44:08.435Z,43.03
2018-04-19T06:45:08.862Z,42.47
2018-04-19T06:46:08.393Z,42.57
2018-04-19T06:47:08.407Z,42.86
2018-04-19T06:48:08.406Z,42.96
2018-04-19T06:49:08.163Z,42.57
2018-04-19T06:50:08.266Z,42.37
2018-04-19T06:51:08.665Z,41.99
2018-04-19T06:52:08.447Z,41.14
2018-04-19T06:53:08.441Z,40.77
2018-04-19T06:54:08.198Z,40
2018-04-19T06:55:08.723Z,40.67
2018-04-19T06:56:08.463Z,39.72
2018-04-19T06:57:08.220Z,39.14
2018-04-19T06:58:08.475Z,39.55
2018-04-19T06:59:08.481Z,38.31
2018-04-19T07:00:08.388Z,37.35
2018-04-19T07:01:08.605Z,35.82
2018-04-19T07:02:08.258Z,35.64
2018-04-19T07:03:08.513Z,35.76
2018-04-19T07:04:08.535Z,34.98
2018-04-19T07:05:08.701Z,33.91
2018-04-19T07:06:08.535Z,33.25
2018-04-19T07:07:08.542Z,33.62
2018-04-19T07:08:08.554Z,33.73
2018-04-19T07:09:08.563Z,33.17
2018-04-19T07:10:08.948Z,31.92
2018-04-19T07:11:08.572Z,32.81
2018-04-19T07:12:08.583Z,31.14
2018-04-19T07:13:08.592Z,32.13
2018-04-19T07:14:08.600Z,30.08
2018-04-19T07:15:08.974Z,30.38
2018-04-19T07:16:08.365Z,29.89
2018-04-19T07:17:08.623Z,29.6
2018-04-19T07:18:08.632Z,29.89
2018-04-19T07:19:08.389Z,29.81
2018-04-19T07:20:09.000Z,29.91
2018-04-19T07:21:08.417Z,29.81
2018-04-19T07:22:08.417Z,29.22
2018-04-19T07:23:08.420Z,28.94
2018-04-19T07:24:08.679Z,28.45
2018-04-19T07:25:08.973Z,28.45
2018-04-19T07:26:08.706Z,29.58
2018-04-19T07:27:08.704Z,29.94
2018-04-19T07:28:08.717Z,31.45
2018-04-19T07:29:08.722Z,33.46
2018-04-19T07:30:08.721Z,34.39
2018-04-19T07:31:08.740Z,36.1
2018-04-19T07:32:08.816Z,37.62
2018-04-19T07:33:08.760Z,38.46
2018-04-19T07:34:08.755Z,39.51
2018-04-19T07:35:09.044Z,40.07
2018-04-19T07:36:08.519Z,39.28
2018-04-19T07:37:08.772Z,38.91
2018-04-19T07:38:08.779Z,38.93
2018-04-19T07:39:08.925Z,38.35
2018-04-19T07:40:09.160Z,37.85
2018-04-19T07:41:08.798Z,39.28
2018-04-19T07:42:08.805Z,39.76
2018-04-19T07:43:08.814Z,39.86
2018-04-19T07:44:08.573Z,39.66
2018-04-19T07:45:08.938Z,38.83
2018-04-19T07:46:08.880Z,36.24
2018-04-19T07:47:08.829Z,35.41
2018-04-19T07:48:08.842Z,33.51
2018-04-19T07:49:08.843Z,31.99
2018-04-19T07:50:09.125Z,30.27
2018-04-19T07:51:08.849Z,29.51
2018-04-19T07:52:08.863Z,29.52
2018-04-19T07:53:08.871Z,29.05
2018-04-19T07:54:08.877Z,28.39
2018-04-19T07:55:08.937Z,27.51
2018-04-19T07:56:08.649Z,27.03
2018-04-19T07:57:08.652Z,27.42
2018-04-19T07:58:08.906Z,26.36
2018-04-19T07:59:08.909Z,26.55
2018-04-19T08:00:09.018Z,27.03
2018-04-19T08:01:08.672Z,27.03
2018-04-19T08:02:08.928Z,27.61
2018-04-19T08:03:08.686Z,27.32
2018-04-19T08:04:08.950Z,26.94
2018-04-19T08:05:08.964Z,26.94
2018-04-19T08:06:08.968Z,26.55
2018-04-19T08:07:08.967Z,26.07
2018-04-19T08:08:08.973Z,25.87
2018-04-19T08:09:08.977Z,25.98
2018-04-19T08:10:09.271Z,25.12
2018-04-19T08:11:08.994Z,24.93
2018-04-19T08:12:09.015Z,24.55
2018-04-19T08:13:09.012Z,23.88
2018-04-19T08:14:09.226Z,23.88
2018-04-19T08:15:09.160Z,23.49
2018-04-19T08:16:08.784Z,24.67
2018-04-19T08:17:09.036Z,23.69
2018-04-19T08:18:09.056Z,23.01
2018-04-19T08:19:09.057Z,23.4
2018-04-19T08:20:09.468Z,23.68
2018-04-19T08:21:09.077Z,23.58
2018-04-19T08:22:09.097Z,23.68
2018-04-19T08:23:08.838Z,23.68
2018-04-19T08:24:09.106Z,24.16
2018-04-19T08:25:09.443Z,23.58
2018-04-19T08:26:08.866Z,22.52
2018-04-19T08:27:08.876Z,21.94
2018-04-19T08:28:09.127Z,23.8
2018-04-19T08:29:09.136Z,22.81
2018-04-19T08:30:09.549Z,23.01
2018-04-19T08:31:09.158Z,23
2018-04-19T08:32:08.923Z,23.78
2018-04-19T08:33:09.168Z,24.07
2018-04-19T08:34:09.177Z,23.68
2018-04-19T08:35:09.719Z,23.77
2018-04-19T08:36:09.231Z,24.54
2018-04-19T08:37:09.198Z,25.4
2018-04-19T08:38:09.213Z,26.64
2018-04-19T08:39:08.970Z,27.29
2018-04-19T08:40:09.587Z,28.23
2018-04-19T08:41:08.985Z,29.08
2018-04-19T08:42:09.289Z,29.64
2018-04-19T08:43:09.251Z,30.21
2018-04-19T08:44:11.113Z,30.79
2018-04-19T08:45:09.208Z,31.74
2018-04-19T08:46:09.033Z,30.68
2018-04-19T08:47:09.030Z,31.44
2018-04-19T08:48:09.302Z,31.54
2018-04-19T08:49:09.301Z,31.54
2018-04-19T08:50:09.803Z,32.01
2018-04-19T08:51:09.307Z,31.91
2018-04-19T08:52:09.307Z,31.52
2018-04-19T08:53:09.316Z,31.91
2018-04-19T08:54:09.329Z,32.1
2018-04-19T08:55:09.790Z,31.33
2018-04-19T08:56:09.093Z,32.01
2018-04-19T08:57:09.359Z,31.71
2018-04-19T08:58:09.352Z,32.01
2018-04-19T08:59:13.564Z,32.01
2018-04-19T09:00:09.771Z,33.25
2018-04-19T09:01:09.369Z,32.96
2018-04-19T09:02:09.367Z,32.86
2018-04-19T09:03:09.370Z,32.96
2018-04-19T09:04:09.389Z,33.25
2018-04-19T09:05:09.859Z,32.78
2018-04-19T09:06:09.396Z,33.07
2018-04-19T09:07:09.396Z,32.39
2018-04-19T09:08:09.163Z,33.94
2018-04-19T09:09:09.403Z,33.84
2018-04-19T09:10:09.775Z,33.36
2018-04-19T09:11:09.414Z,32.2
2018-04-19T09:12:09.485Z,32.01
2018-04-19T09:13:09.472Z,30.96
2018-04-19T09:14:09.178Z,31.04
2018-04-19T09:15:09.860Z,31.13
2018-04-19T09:16:09.452Z,30.75
2018-04-19T09:17:09.195Z,31.13
2018-04-19T09:18:09.451Z,30.66
2018-04-19T09:19:09.474Z,30.76
2018-04-19T09:20:10.136Z,30.66
2018-04-19T09:21:09.462Z,30.57
2018-04-19T09:22:09.466Z,30.08
2018-04-19T09:23:09.532Z,30.28
2018-04-19T09:24:09.477Z,30.18
2018-04-19T09:25:09.728Z,30.18
2018-04-19T09:26:09.483Z,30.08
2018-04-19T09:27:09.490Z,30.08
2018-04-19T09:28:09.502Z,29.9
2018-04-19T09:29:09.497Z,30.18
2018-04-19T09:30:09.946Z,29.6
2018-04-19T09:31:09.508Z,30.86
2018-04-19T09:32:09.265Z,30.18
2018-04-19T09:33:09.270Z,30.08
2018-04-19T09:34:09.557Z,30.08
2018-04-19T09:35:09.931Z,29.61
2018-04-19T09:36:09.532Z,29.71
2018-04-19T09:37:09.535Z,28.45
2018-04-19T09:38:09.291Z,28.94
2018-04-19T09:39:09.564Z,29.13
2018-04-19T09:40:09.704Z,29.43
2018-04-19T09:41:09.560Z,29.33
2018-04-19T09:42:09.561Z,29.71
2018-04-19T09:43:09.565Z,28.85
2018-04-19T09:44:09.572Z,28.85
2018-04-19T09:45:15.951Z,28.92
2018-04-19T09:46:09.337Z,28.94
2018-04-19T09:47:09.332Z,29.6
2018-04-19T09:48:09.599Z,28.83
2018-04-19T09:49:09.593Z,29.13
2018-04-19T09:50:10.004Z,29.43
2018-04-19T09:51:09.608Z,28.94
2018-04-19T09:52:09.604Z,30.1
2018-04-19T09:53:09.360Z,30
2018-04-19T09:54:09.576Z,28.94
2018-04-19T09:55:09.865Z,29.33
2018-04-19T09:56:09.619Z,29.33
2018-04-19T09:57:09.628Z,29.43
2018-04-19T09:58:09.634Z,29.43
2018-04-19T09:59:09.634Z,29.03
2018-04-19T10:00:09.889Z,28.94
2018-04-19T10:01:09.659Z,29.71
2018-04-19T10:02:09.647Z,29.43
2018-04-19T10:03:09.675Z,30.78
2018-04-19T10:04:09.773Z,30.98
2018-04-19T10:05:10.173Z,30.1
2018-04-19T10:06:09.671Z,30.1
2018-04-19T10:07:09.425Z,30.1
2018-04-19T10:08:09.679Z,29.43
2018-04-19T10:09:09.698Z,28.38
2018-04-19T10:10:10.165Z,28.76
2018-04-19T10:11:09.697Z,28.38
2018-04-19T10:12:09.695Z,27.89
2018-04-19T10:13:09.705Z,28.96
2018-04-19T10:14:09.710Z,29.63
2018-04-19T10:15:10.126Z,29.92
2018-04-19T10:16:09.769Z,29.44
2018-04-19T10:17:09.725Z,28.66
2018-04-19T10:18:09.475Z,29.05
2018-04-19T10:19:09.488Z,28.56
2018-04-19T10:20:10.258Z,28.28
2018-04-19T10:21:09.741Z,28.86
2018-04-19T10:52:46.336Z,26.93
2018-04-19T10:53:45.277Z,26.84
2018-04-19T10:54:45.277Z,27.51
2018-04-19T10:55:45.280Z,27.51
2018-04-19T10:56:45.032Z,28
2018-04-19T10:57:45.045Z,27.91
2018-04-19T10:58:45.280Z,27.89
2018-04-19T10:59:45.037Z,28.28
2018-04-19T11:00:45.281Z,28.49
2018-04-19T11:01:45.042Z,28
2018-04-19T11:02:45.287Z,28.49
2018-04-19T11:03:45.295Z,28.29
2018-04-19T11:04:45.311Z,28
2018-04-19T11:05:45.297Z,28.19
2018-04-19T11:06:45.305Z,28.39
2018-04-19T11:07:45.303Z,29.46
2018-04-19T11:08:45.305Z,29.08
2018-04-19T11:09:45.313Z,29.08
2018-04-19T11:10:45.326Z,28.77
2018-04-19T11:11:45.129Z,28.02
2018-04-19T11:12:45.336Z,28.2
2018-04-19T11:13:45.343Z,27.82
2018-04-19T11:14:45.331Z,27.62
2018-04-19T11:15:45.344Z,27.72
2018-04-19T11:16:45.343Z,27.53
2018-04-19T11:17:45.347Z,27.62
2018-04-19T11:18:45.125Z,28.49
2018-04-19T11:19:45.359Z,28.58
2018-04-19T11:20:45.122Z,28.87
2018-04-19T11:21:45.139Z,28.69
2018-04-19T11:22:45.686Z,28.79
2018-04-19T11:23:45.374Z,29.08
2018-04-19T11:24:45.381Z,28.5
2018-04-19T11:25:45.391Z,29.08
2018-04-19T11:26:45.400Z,30.34
2018-04-19T11:27:45.147Z,29.76
2018-04-19T11:28:45.395Z,29.47
2018-04-19T11:29:45.409Z,29.37
2018-04-19T11:30:45.413Z,29.76
2018-04-19T11:31:45.169Z,29.37
2018-04-19T11:32:45.180Z,30.26
2018-04-19T11:33:45.176Z,28.32
2018-04-19T11:34:45.430Z,27.73
2018-04-19T11:35:45.436Z,27.64
2018-04-19T11:36:45.277Z,27.25
2018-04-19T11:37:49.495Z,27.93
2018-04-19T11:38:45.463Z,26.86
2018-04-19T11:39:45.457Z,26.86
2018-04-19T11:40:45.494Z,26.76
2018-04-19T11:41:45.462Z,27.06
2018-04-19T11:42:45.465Z,27.15
2018-04-19T11:43:45.228Z,27.06
2018-04-19T11:44:45.499Z,28.13
2018-04-19T11:45:45.497Z,27.73
2018-04-19T11:46:45.494Z,29
2018-04-19T11:47:45.492Z,28.32
2018-04-19T11:48:45.504Z,29.48
2018-04-19T11:49:45.510Z,29.38
2018-04-19T11:50:45.513Z,28.8
2018-04-19T11:51:45.269Z,28.61
2018-04-19T11:52:45.521Z,30.35
2018-04-19T11:53:45.285Z,30.94
2018-04-19T11:54:45.528Z,31.91
2018-04-19T11:55:45.286Z,29.1
2018-04-19T11:56:45.545Z,28.41
2018-04-19T11:57:45.549Z,27.93
2018-04-19T11:58:45.559Z,27.75
2018-04-19T11:59:45.561Z,27.84
2018-04-19T12:00:45.568Z,27.66
2018-04-19T12:01:45.574Z,27.56
2018-04-19T12:02:45.326Z,28.23
2018-04-19T12:03:45.582Z,28.33
2018-04-19T12:04:45.332Z,27.66
2018-04-19T12:05:45.589Z,27.56
2018-04-19T12:06:45.596Z,27.46
2018-04-19T12:07:45.600Z,28.04
2018-04-19T12:08:45.608Z,27.56
2018-04-19T12:09:45.615Z,28.53
2018-04-19T12:10:45.617Z,29.11
2018-04-19T12:11:45.625Z,28.53
2018-04-19T12:12:45.622Z,28.43
2018-04-19T12:13:45.654Z,28.23
2018-04-19T12:14:45.638Z,27.76
2018-04-19T12:15:45.652Z,27.67
2018-04-19T12:16:45.658Z,27.66
2018-04-19T12:17:45.653Z,27.66
2018-04-19T12:18:45.718Z,28.63
2018-04-19T12:19:45.669Z,28.43
2018-04-19T12:20:45.670Z,28.53
2018-04-19T12:21:45.687Z,28.61
2018-04-19T12:22:45.432Z,29.79
2018-04-19T12:23:48.053Z,31.15
2018-04-19T12:24:45.689Z,29.5
2018-04-19T12:25:45.699Z,29.11
2018-04-19T12:26:45.715Z,28.91
2018-04-19T12:27:45.454Z,29.69
2018-04-19T12:28:45.711Z,28.53
2018-04-19T12:29:45.729Z,28.63
2018-04-19T12:30:45.470Z,28.43
2018-04-19T12:31:45.477Z,28.7
2018-04-19T12:32:45.729Z,29
2018-04-19T12:33:45.747Z,29
2018-04-19T12:34:45.748Z,28.9
2018-04-19T12:35:45.743Z,28.89
2018-04-19T12:36:45.753Z,28.9
2018-04-19T12:37:45.816Z,28.8
2018-04-19T12:38:45.769Z,28.8
2018-04-19T12:39:45.770Z,28.32
2018-04-19T12:40:45.771Z,28.51
2018-04-19T12:41:45.788Z,28.22
2018-04-19T12:42:45.795Z,28.61
2018-04-19T12:43:45.539Z,28.91
2018-04-19T12:44:45.545Z,28.81
2018-04-19T12:45:45.801Z,28.81
2018-04-19T12:46:45.813Z,28.72
2018-04-19T12:47:45.810Z,29.19
2018-04-19T12:48:45.810Z,29.38
2018-04-19T12:49:45.818Z,29
2018-04-19T12:50:45.829Z,29.68
2018-04-19T12:51:45.588Z,29.69
2018-04-19T12:52:45.586Z,29.4
2018-04-19T12:53:48.792Z,28.81
2018-04-19T12:54:45.849Z,28.91
2018-04-19T12:55:45.850Z,29.01
2018-04-19T12:56:45.603Z,29.3
2018-04-19T12:57:45.860Z,29.01
2018-04-19T12:58:45.867Z,28.91
2018-04-19T12:59:45.618Z,30.26
2018-04-19T13:00:45.877Z,30.76
2018-04-19T13:01:45.627Z,29.98
2018-04-19T13:02:45.880Z,29.88
2018-04-19T13:03:45.889Z,29.6
2018-04-19T13:04:45.895Z,29.6
2018-04-19T13:05:45.901Z,30.95
2018-04-19T13:06:45.907Z,32.12
2018-04-19T13:07:45.908Z,30.95
2018-04-19T13:08:45.920Z,29.88
2018-04-19T13:09:45.922Z,29.11
2018-04-19T13:10:45.932Z,28.74
2018-04-19T13:11:45.934Z,29.4
2018-04-19T13:12:45.686Z,30.27
2018-04-19T13:13:45.944Z,30.19
2018-04-19T13:14:45.696Z,30.19
2018-04-19T13:15:45.951Z,29.88
2018-04-19T13:16:45.711Z,29.9
2018-04-19T13:17:45.963Z,29.8
2018-04-19T13:18:45.967Z,29.41
2018-04-19T13:19:45.975Z,29.79
2018-04-19T13:20:46.015Z,30.76
2018-04-19T13:21:45.984Z,30.29
2018-04-19T13:22:45.990Z,29.8
2018-04-19T13:23:45.995Z,29.5
2018-04-19T13:24:46.014Z,29.8
2018-04-19T13:25:46.100Z,29.5
2018-04-19T13:26:45.760Z,29.51
2018-04-19T13:27:46.012Z,29.69
2018-04-19T13:28:45.775Z,29.51
2018-04-19T13:29:45.778Z,30.08
2018-04-19T13:30:46.030Z,29.61
2018-04-19T13:31:46.050Z,28.74
2018-04-19T13:32:46.053Z,28.25
2018-04-19T13:33:46.052Z,28.34
2018-04-19T13:34:46.066Z,28.44
2018-04-19T13:35:46.057Z,28.64
2018-04-19T13:36:46.061Z,28.54
2018-04-19T13:37:46.070Z,29.8
2018-04-19T13:38:46.073Z,29.12
2018-04-19T13:39:47.126Z,30
2018-04-19T13:40:46.091Z,28.34
2018-04-19T13:41:46.090Z,28.44